Time;durP1;ratioP1;P1;durP2;ratioP2;P2;SDS_P1;SDS_P2;PMS_P1;PMS_P2;Temp;Humidity;BMP_temperature;BMP_pressure;BME280_temperature;BME280_humidity;BME280_pressure;Samples;Min_cycle;Max_cycle;Signal;HPM_P1;HPM_P2
2023/03/09 00:07:30;;;;;;;0.40;0.30;;;11.90;99.90;;;;;;20507058;28;20081;-77
2023/03/09 00:17:31;;;;;;;0.55;0.55;;;11.90;99.90;;;;;;20578865;28;20038;-77
2023/03/09 00:27:32;;;;;;;0.90;0.67;;;12.20;99.90;;;;;;20585760;28;20034;-76
2023/03/09 00:37:33;;;;;;;2.40;0.50;;;12.00;99.90;;;;;;20583315;28;20054;-78
2023/03/09 00:47:33;;;;;;;0.90;0.53;;;12.00;99.90;;;;;;20509766;28;20042;-77
2023/03/09 00:57:34;;;;;;;1.50;0.60;;;11.80;99.90;;;;;;20524628;29;20034;-81
2023/03/09 01:07:35;;;;;;;1.97;0.63;;;11.90;99.90;;;;;;20538136;28;20039;-80
2023/03/09 01:17:36;;;;;;;2.30;0.80;;;11.80;99.90;;;;;;20651575;28;20033;-78
2023/03/09 01:27:37;;;;;;;3.97;0.77;;;11.90;99.90;;;;;;20705182;28;20030;-79
2023/03/09 01:37:38;;;;;;;1.20;0.43;;;11.80;99.90;;;;;;20699380;28;20026;-80
2023/03/09 01:47:38;;;;;;;1.67;1.00;;;11.70;99.90;;;;;;20625311;28;20035;-80
2023/03/09 01:57:53;;;;;;;3.40;0.77;;;11.60;99.90;;;;;;20618835;28;20027;-81
2023/03/09 02:07:56;;;;;;;3.95;0.80;;;12.30;99.90;;;;;;20621060;28;20042;-81
2023/03/09 02:18:01;;;;;;;3.88;0.82;;;12.50;99.90;;;;;;20618847;28;20047;-80
2023/03/09 02:28:03;;;;;;;;;;;12.50;99.90;;;;;;20613675;28;20423;-80
2023/03/09 02:38:09;;;;;;;;;;;12.30;99.90;;;;;;20613713;28;19914;-80
2023/03/09 02:48:10;;;;;;;4.97;0.75;;;12.60;99.90;;;;;;20611335;28;20409;-80
2023/03/09 02:58:11;;;;;;;2.63;0.57;;;12.50;99.90;;;;;;20622331;28;20035;-79
2023/03/09 03:08:12;;;;;;;0.57;0.37;;;11.40;99.90;;;;;;20616217;28;20096;-80
2023/03/09 03:18:13;;;;;;;1.00;0.50;;;10.80;99.90;;;;;;20618459;28;20038;-80
2023/03/09 03:28:14;;;;;;;2.37;1.03;;;10.40;99.90;;;;;;20617974;28;20038;-79
2023/03/09 03:38:15;;;;;;;1.05;0.60;;;10.10;99.90;;;;;;20616930;28;20341;-79
2023/03/09 03:48:16;;;;;;;3.60;0.40;;;9.80;99.90;;;;;;20617003;28;20031;-78
2023/03/09 03:58:17;;;;;;;1.40;0.57;;;9.70;99.90;;;;;;20624190;28;20034;-78
2023/03/09 04:08:18;;;;;;;0.47;0.30;;;9.40;99.90;;;;;;20612093;28;20482;-79
2023/03/09 04:18:23;;;;;;;1.05;0.38;;;9.20;99.90;;;;;;20611241;28;20034;-80
2023/03/09 04:28:25;;;;;;;1.65;0.30;;;9.00;99.90;;;;;;20610701;28;20046;-78
2023/03/09 04:38:28;;;;;;;2.65;0.40;;;8.80;99.90;;;;;;20591457;28;20031;-80
2023/03/09 04:48:31;;;;;;;0.32;0.30;;;8.80;99.90;;;;;;20606959;28;20038;-79
2023/03/09 04:58:32;;;;;;;;;;;8.80;99.90;;;;;;20605261;28;20027;-79
2023/03/09 05:08:33;;;;;;;84.68;32.22;;;8.80;99.90;;;;;;20601996;28;19910;-77
2023/03/09 05:18:35;;;;;;;1.48;0.88;;;8.70;99.90;;;;;;20588961;28;20078;-76
2023/03/09 05:28:38;;;;;;;3.45;0.50;;;8.70;99.90;;;;;;20580613;28;20035;-76
2023/03/09 05:38:39;;;;;;;2.30;0.70;;;8.70;99.90;;;;;;20540963;28;20031;-76
2023/03/09 05:48:40;;;;;;;1.98;0.75;;;8.80;99.90;;;;;;20555930;28;20034;-76
2023/03/09 05:58:42;;;;;;;7.00;1.02;;;8.90;99.90;;;;;;20612355;28;20411;-75
2023/03/09 06:08:46;;;;;;;4.97;1.15;;;9.00;99.90;;;;;;20588523;28;20031;-76
2023/03/09 06:18:49;;;;;;;7.80;2.40;;;8.90;99.90;;;;;;20593125;28;20070;-76
2023/03/09 06:28:50;;;;;;;;;;;9.00;99.90;;;;;;20590025;28;20030;-76
2023/03/09 06:38:52;;;;;;;11.20;1.20;;;9.00;99.90;;;;;;20585306;28;20373;-75
2023/03/09 06:48:57;;;;;;;8.90;1.83;;;9.00;99.90;;;;;;20599997;28;20030;-79
2023/03/09 06:58:58;;;;;;;9.17;3.77;;;9.20;99.90;;;;;;20608919;28;20034;-78
2023/03/09 07:09:00;;;;;;;10.02;2.53;;;9.30;99.90;;;;;;20616024;28;20042;-79
2023/03/09 07:19:01;;;;;;;6.90;1.27;;;9.50;99.90;;;;;;20618699;28;20204;-79
2023/03/09 07:29:02;;;;;;;6.43;1.20;;;10.10;99.90;;;;;;20621039;28;20035;-78
2023/03/09 07:39:03;;;;;;;5.80;0.90;;;9.50;99.90;;;;;;20619725;28;20057;-78
2023/03/09 07:49:04;;;;;;;4.47;0.80;;;8.90;99.90;;;;;;20605397;28;20045;-78
2023/03/09 07:59:05;;;;;;;12.60;2.83;;;8.70;99.90;;;;;;20598262;28;20090;-78
2023/03/09 08:09:08;;;;;;;4.90;1.93;;;9.80;99.90;;;;;;20595180;28;20065;-78
2023/03/09 08:19:09;;;;;;;4.90;0.98;;;10.30;99.90;;;;;;20592317;28;20059;-77
2023/03/09 08:29:10;;;;;;;8.20;1.73;;;10.50;99.90;;;;;;20610239;28;20034;-78
2023/03/09 08:39:11;;;;;;;3.80;0.80;;;10.20;99.90;;;;;;20608963;28;20124;-78
2023/03/09 08:49:12;;;;;;;8.43;1.08;;;10.20;99.90;;;;;;20684660;28;20033;-78
2023/03/09 08:59:13;;;;;;;4.40;0.90;;;10.90;99.90;;;;;;20693524;28;20065;-78
2023/03/09 09:09:14;;;;;;;3.87;0.77;;;12.30;99.90;;;;;;20681264;28;20102;-78
2023/03/09 09:19:14;;;;;;;3.23;0.80;;;12.90;99.90;;;;;;20606199;28;20061;-79
2023/03/09 09:29:15;;;;;;;5.23;1.37;;;11.80;99.90;;;;;;20608771;28;20122;-76
2023/03/09 09:39:17;;;;;;;5.17;1.10;;;11.30;99.90;;;;;;20625707;28;20027;-78
2023/03/09 09:49:23;;;;;;;3.88;0.90;;;11.20;99.90;;;;;;20706306;28;20496;-78
2023/03/09 09:59:35;;;;;;;10.98;1.38;;;11.00;99.90;;;;;;20699358;28;20035;-79
2023/03/09 10:09:40;;;;;;;3.67;0.57;;;10.90;99.90;;;;;;20699942;28;20057;-78
2023/03/09 10:19:42;;;;;;;3.08;0.75;;;10.80;99.90;;;;;;20701012;28;20034;-79
2023/03/09 10:29:53;;;;;;;6.05;0.93;;;11.80;99.90;;;;;;20627476;28;20126;-78
2023/03/09 10:39:54;;;;;;;6.20;0.75;;;12.60;99.90;;;;;;20616518;28;20062;-78
2023/03/09 10:50:10;;;;;;;5.63;0.95;;;12.50;99.90;;;;;;20638174;28;20390;-78
2023/03/09 11:00:14;;;;;;;2.15;0.77;;;13.40;99.90;;;;;;20593521;28;20031;-78
2023/03/09 11:10:33;;;;;;;3.45;0.70;;;14.90;99.90;;;;;;20542570;28;20053;-78
2023/03/09 11:20:38;;;;;;;4.75;0.90;;;15.90;99.90;;;;;;20628988;28;20113;-77
2023/03/09 11:30:40;;;;;;;6.65;0.98;;;15.00;99.90;;;;;;20659978;28;20045;-79
2023/03/09 11:40:42;;;;;;;2.30;1.00;;;16.10;99.90;;;;;;20697317;28;20037;-80
2023/03/09 11:51:04;;;;;;;4.85;0.40;;;16.20;99.90;;;;;;20640508;28;20027;-80
2023/03/09 12:01:12;;;;;;;;;;;16.20;99.90;;;;;;20614129;28;20768;-80
2023/03/09 12:11:26;;;;;;;4.20;1.10;;;16.20;99.90;;;;;;20612899;28;20013;-80
2023/03/09 12:21:34;;;;;;;4.65;0.93;;;16.20;99.90;;;;;;20612470;28;20043;-78
2023/03/09 12:31:36;;;;;;;5.38;1.30;;;16.70;99.90;;;;;;20608931;28;20038;-77
2023/03/09 12:42:23;;;;;;;4.90;0.80;;;14.90;99.90;;;;;;20610330;28;20038;-80
2023/03/09 12:52:54;;;;;;;5.43;0.90;;;15.70;99.90;;;;;;20597168;28;20035;-78
2023/03/09 13:03:19;;;;;;;4.80;0.93;;;15.20;99.90;;;;;;20582948;28;20054;-76
2023/03/09 13:13:44;;;;;;;6.80;0.68;;;15.60;99.90;;;;;;20588619;28;20034;-76
2023/03/09 13:23:45;;;;;;;5.05;0.80;;;16.50;99.90;;;;;;20576267;28;20038;-77
2023/03/09 13:33:47;;;;;;;7.73;1.00;;;16.60;99.90;;;;;;20596372;28;20093;-77
2023/03/09 13:43:49;;;;;;;;;;;17.10;99.90;;;;;;20621652;28;20506;-78
2023/03/09 13:53:50;;;;;;;2.27;0.70;;;17.40;99.90;;;;;;20590990;28;19910;-77
2023/03/09 14:03:58;;;;;;;4.70;1.03;;;17.50;99.90;;;;;;20575035;28;20486;-77
2023/03/09 14:14:04;;;;;;;5.00;0.82;;;17.80;99.90;;;;;;20589998;28;20041;-78
2023/03/09 14:24:23;;;;;;;5.05;0.95;;;18.50;99.80;;;;;;20585071;28;20118;-76
2023/03/09 14:34:27;;;;;;;3.80;0.60;;;18.20;99.70;;;;;;20592996;28;20045;-77
2023/03/09 14:44:43;;;;;;;4.75;0.88;;;17.60;98.90;;;;;;20614031;28;20400;-76
2023/03/09 14:54:44;;;;;;;4.07;1.00;;;16.30;99.90;;;;;;20672786;28;20041;-77
2023/03/09 15:04:46;;;;;;;6.27;1.07;;;16.10;99.90;;;;;;20678125;28;20408;-76
2023/03/09 15:14:49;;;;;;;3.00;0.80;;;16.10;99.90;;;;;;20673348;28;20084;-76
2023/03/09 15:24:50;;;;;;;6.72;0.95;;;16.10;99.90;;;;;;20630862;28;20062;-76
2023/03/09 15:34:51;;;;;;;10.17;2.60;;;16.00;99.90;;;;;;20572754;28;20035;-77
2023/03/09 15:44:52;;;;;;;7.57;1.43;;;15.80;99.90;;;;;;20587821;28;20039;-77
2023/03/09 15:54:52;;;;;;;5.40;1.10;;;15.80;99.90;;;;;;20592689;28;20414;-77
2023/03/09 16:04:53;;;;;;;2.83;0.77;;;15.60;99.90;;;;;;20584361;28;20046;-75
2023/03/09 16:14:54;;;;;;;6.63;0.90;;;14.90;99.90;;;;;;20607093;28;20084;-76
2023/03/09 16:24:55;;;;;;;3.37;0.80;;;14.80;99.90;;;;;;20567378;28;20039;-77
2023/03/09 16:34:56;;;;;;;4.13;0.70;;;14.80;99.90;;;;;;20566308;28;20077;-77
2023/03/09 16:44:56;;;;;;;6.57;1.07;;;14.80;99.90;;;;;;20583872;28;20093;-76
2023/03/09 16:55:00;;;;;;;7.43;1.80;;;14.80;99.90;;;;;;20589640;28;20418;-76
2023/03/09 17:05:04;;;;;;;8.07;1.13;;;14.60;99.90;;;;;;20582042;28;20034;-76
2023/03/09 17:15:05;;;;;;;10.15;1.52;;;14.20;99.90;;;;;;20581639;28;20039;-78
2023/03/09 17:25:06;;;;;;;6.55;1.20;;;13.20;99.90;;;;;;20581054;28;20033;-76
2023/03/09 17:35:08;;;;;;;4.03;1.27;;;12.20;99.90;;;;;;20582397;28;20113;-76
2023/03/09 17:45:11;;;;;;;5.45;1.35;;;11.50;99.90;;;;;;20579667;28;20390;-75
2023/03/09 17:55:12;;;;;;;12.10;1.73;;;11.00;99.90;;;;;;20569711;28;20505;-76
2023/03/09 18:05:12;;;;;;;2.97;1.17;;;11.00;99.90;;;;;;20515685;28;20058;-76
2023/03/09 18:15:14;;;;;;;6.93;1.70;;;10.50;99.90;;;;;;20594647;28;20031;-75
2023/03/09 18:25:15;;;;;;;4.43;1.30;;;10.30;99.90;;;;;;20593559;28;20034;-76
2023/03/09 18:35:16;;;;;;;1.50;0.95;;;9.90;99.90;;;;;;20593727;28;20035;-77
2023/03/09 18:45:17;;;;;;;5.93;1.50;;;9.70;99.90;;;;;;20592891;28;20548;-76
2023/03/09 18:55:18;;;;;;;6.15;1.92;;;9.70;99.90;;;;;;20599054;28;20469;-75
2023/03/09 19:05:19;;;;;;;4.93;1.50;;;9.50;99.90;;;;;;20625919;28;20130;-76
2023/03/09 19:15:20;;;;;;;6.40;2.03;;;9.90;99.90;;;;;;20567971;28;20442;-77
2023/03/09 19:25:20;;;;;;;4.83;1.80;;;9.90;99.90;;;;;;20558860;28;20034;-77
2023/03/09 19:35:21;;;;;;;10.07;2.87;;;9.70;99.90;;;;;;20543668;28;20513;-77
2023/03/09 19:45:22;;;;;;;4.90;1.20;;;9.70;99.90;;;;;;20588798;28;20304;-75
2023/03/09 19:55:23;;;;;;;4.60;2.17;;;9.50;99.90;;;;;;20604333;28;20039;-75
2023/03/09 20:05:25;;;;;;;6.77;3.20;;;9.50;99.90;;;;;;20604045;28;20067;-77
2023/03/09 20:15:26;;;;;;;5.18;1.80;;;9.70;99.90;;;;;;20585246;28;20398;-77
2023/03/09 20:25:27;;;;;;;;;;;9.50;99.90;;;;;;20656465;28;20117;-77
2023/03/09 20:35:28;;;;;;;5.63;1.70;;;9.00;99.90;;;;;;20572314;28;19938;-76
2023/03/09 20:45:29;;;;;;;4.38;1.40;;;8.70;99.90;;;;;;20551355;28;20031;-76
2023/03/09 20:55:30;;;;;;;6.40;1.87;;;8.50;99.90;;;;;;20561910;28;20093;-76
2023/03/09 21:05:33;;;;;;;3.43;1.70;;;8.20;99.90;;;;;;20547969;28;20290;-76
2023/03/09 21:15:44;;;;;;;6.55;1.92;;;8.30;99.90;;;;;;20550705;28;20069;-75
2023/03/09 21:25:45;;;;;;;5.10;2.20;;;8.40;99.90;;;;;;20587149;28;20581;-76
2023/03/09 21:35:48;;;;;;;4.60;2.90;;;8.30;99.90;;;;;;20587582;28;20070;-76
2023/03/09 21:45:52;;;;;;;4.82;2.22;;;8.50;99.90;;;;;;20598723;28;20035;-74
2023/03/09 21:55:53;;;;;;;6.82;1.92;;;8.50;99.90;;;;;;20649408;28;20035;-76
2023/03/09 22:05:54;;;;;;;3.37;1.30;;;8.50;99.90;;;;;;20613489;28;20468;-76
2023/03/09 22:15:55;;;;;;;4.53;2.40;;;8.40;99.90;;;;;;20675543;28;20289;-75
2023/03/09 22:25:55;;;;;;;4.17;2.30;;;8.20;99.90;;;;;;20676003;28;20491;-74
2023/03/09 22:36:11;;;;;;;10.33;3.90;;;8.30;99.90;;;;;;20676986;28;20077;-76
2023/03/09 22:46:23;;;;;;;8.93;2.80;;;8.10;99.90;;;;;;20672764;28;20612;-75
2023/03/09 22:56:25;;;;;;;7.50;2.65;;;8.10;99.90;;;;;;20512000;29;20384;-76
2023/03/09 23:06:26;;;;;;;18.95;2.65;;;7.70;99.90;;;;;;20511373;29;20035;-77
2023/03/09 23:16:27;;;;;;;7.27;1.80;;;7.90;99.90;;;;;;20510125;28;20542;-77
2023/03/09 23:26:28;;;;;;;8.70;2.07;;;8.10;99.90;;;;;;20671161;28;20437;-80
2023/03/09 23:36:28;;;;;;;8.90;2.70;;;8.10;99.90;;;;;;20669283;28;20490;-79
2023/03/09 23:46:29;;;;;;;7.97;3.03;;;8.00;99.90;;;;;;20667604;28;20140;-77
2023/03/09 23:56:30;;;;;;;5.97;2.17;;;7.80;99.90;;;;;;20667101;28;20034;-77
